sensor_id;sensor_type;location;lat;lon;timestamp;P1;durP1;ratioP1;P2;durP2;ratioP2
17199;SDS011;8716;52.268;20.968;2023-05-15T00:01:24;5.73;;;5.43;;
17199;SDS011;8716;52.268;20.968;2023-05-15T00:03:52;5.47;;;5.17;;
17199;SDS011;8716;52.268;20.968;2023-05-15T00:06:22;4.47;;;4.17;;
17199;SDS011;8716;52.268;20.968;2023-05-15T00:08:50;5.47;;;5.17;;
17199;SDS011;8716;52.268;20.968;2023-05-15T00:11:19;5.20;;;4.90;;
17199;SDS011;8716;52.268;20.968;2023-05-15T00:13:50;4.57;;;4.27;;
17199;SDS011;8716;52.268;20.968;2023-05-15T00:16:21;4.47;;;4.17;;
17199;SDS011;8716;52.268;20.968;2023-05-15T00:18:49;5.40;;;5.10;;
17199;SDS011;8716;52.268;20.968;2023-05-15T00:21:17;5.63;;;4.80;;
17199;SDS011;8716;52.268;20.968;2023-05-15T00:23:46;12.67;;;5.03;;
17199;SDS011;8716;52.268;20.968;2023-05-15T00:26:14;6.10;;;5.77;;
17199;SDS011;8716;52.268;20.968;2023-05-15T00:28:45;4.73;;;3.77;;
17199;SDS011;8716;52.268;20.968;2023-05-15T00:31:17;5.20;;;4.90;;
17199;SDS011;8716;52.268;20.968;2023-05-15T00:33:45;5.17;;;4.87;;
17199;SDS011;8716;52.268;20.968;2023-05-15T00:36:13;5.60;;;5.30;;
17199;SDS011;8716;52.268;20.968;2023-05-15T00:38:42;5.20;;;4.90;;
17199;SDS011;8716;52.268;20.968;2023-05-15T00:41:11;6.90;;;6.50;;
17199;SDS011;8716;52.268;20.968;2023-05-15T00:43:40;5.97;;;5.67;;
17199;SDS011;8716;52.268;20.968;2023-05-15T00:46:10;4.70;;;4.40;;
17199;SDS011;8716;52.268;20.968;2023-05-15T00:48:42;3.70;;;3.50;;
17199;SDS011;8716;52.268;20.968;2023-05-15T00:51:11;3.67;;;3.47;;
17199;SDS011;8716;52.268;20.968;2023-05-15T00:53:39;4.80;;;4.50;;
17199;SDS011;8716;52.268;20.968;2023-05-15T00:56:09;4.33;;;4.03;;
17199;SDS011;8716;52.268;20.968;2023-05-15T00:58:39;6.33;;;3.90;;
17199;SDS011;8716;52.268;20.968;2023-05-15T01:01:08;4.37;;;4.07;;
17199;SDS011;8716;52.268;20.968;2023-05-15T01:03:37;3.37;;;3.17;;
17199;SDS011;8716;52.268;20.968;2023-05-15T01:06:22;3.90;;;3.70;;
17199;SDS011;8716;52.268;20.968;2023-05-15T01:08:51;3.23;;;3.03;;
17199;SDS011;8716;52.268;20.968;2023-05-15T01:11:23;3.40;;;3.20;;
17199;SDS011;8716;52.268;20.968;2023-05-15T01:13:53;6.03;;;2.93;;
17199;SDS011;8716;52.268;20.968;2023-05-15T01:16:23;4.47;;;4.17;;
17199;SDS011;8716;52.268;20.968;2023-05-15T01:18:53;4.23;;;3.97;;
17199;SDS011;8716;52.268;20.968;2023-05-15T01:24:42;5.13;;;4.83;;
17199;SDS011;8716;52.268;20.968;2023-05-15T01:27:33;4.43;;;4.17;;
17199;SDS011;8716;52.268;20.968;2023-05-15T01:30:04;4.03;;;3.83;;
17199;SDS011;8716;52.268;20.968;2023-05-15T01:32:39;4.40;;;4.10;;
17199;SDS011;8716;52.268;20.968;2023-05-15T01:35:12;3.30;;;3.10;;
17199;SDS011;8716;52.268;20.968;2023-05-15T01:37:45;4.70;;;4.40;;
17199;SDS011;8716;52.268;20.968;2023-05-15T01:40:17;11.27;;;3.87;;
17199;SDS011;8716;52.268;20.968;2023-05-15T01:42:53;4.30;;;4.00;;
17199;SDS011;8716;52.268;20.968;2023-05-15T01:45:22;4.07;;;3.87;;
17199;SDS011;8716;52.268;20.968;2023-05-15T01:47:53;4.80;;;4.50;;
17199;SDS011;8716;52.268;20.968;2023-05-15T01:50:26;4.63;;;4.33;;
17199;SDS011;8716;52.268;20.968;2023-05-15T01:52:58;4.00;;;3.80;;
17199;SDS011;8716;52.268;20.968;2023-05-15T01:55:29;3.90;;;3.70;;
17199;SDS011;8716;52.268;20.968;2023-05-15T01:58:01;5.40;;;5.10;;
17199;SDS011;8716;52.268;20.968;2023-05-15T02:00:31;4.80;;;4.50;;
17199;SDS011;8716;52.268;20.968;2023-05-15T02:02:59;5.27;;;4.97;;
17199;SDS011;8716;52.268;20.968;2023-05-15T02:05:28;5.17;;;4.90;;
17199;SDS011;8716;52.268;20.968;2023-05-15T02:07:57;6.60;;;6.07;;
17199;SDS011;8716;52.268;20.968;2023-05-15T02:10:27;6.97;;;6.13;;
17199;SDS011;8716;52.268;20.968;2023-05-15T02:12:55;5.20;;;4.90;;
17199;SDS011;8716;52.268;20.968;2023-05-15T02:15:25;4.83;;;4.07;;
17199;SDS011;8716;52.268;20.968;2023-05-15T02:17:55;5.63;;;5.33;;
17199;SDS011;8716;52.268;20.968;2023-05-15T02:20:23;4.00;;;3.80;;
17199;SDS011;8716;52.268;20.968;2023-05-15T02:22:52;5.00;;;4.70;;
17199;SDS011;8716;52.268;20.968;2023-05-15T02:25:22;3.90;;;3.70;;
17199;SDS011;8716;52.268;20.968;2023-05-15T02:27:59;3.70;;;3.50;;
17199;SDS011;8716;52.268;20.968;2023-05-15T02:30:31;5.83;;;5.53;;
17199;SDS011;8716;52.268;20.968;2023-05-15T02:33:08;5.70;;;5.40;;
17199;SDS011;8716;52.268;20.968;2023-05-15T02:35:50;3.50;;;3.30;;
17199;SDS011;8716;52.268;20.968;2023-05-15T02:38:24;8.90;;;4.90;;
17199;SDS011;8716;52.268;20.968;2023-05-15T02:40:57;3.70;;;3.50;;
17199;SDS011;8716;52.268;20.968;2023-05-15T02:43:31;7.60;;;7.20;;
17199;SDS011;8716;52.268;20.968;2023-05-15T02:46:01;4.07;;;3.87;;
17199;SDS011;8716;52.268;20.968;2023-05-15T02:48:32;4.47;;;4.17;;
17199;SDS011;8716;52.268;20.968;2023-05-15T02:51:02;5.17;;;4.87;;
17199;SDS011;8716;52.268;20.968;2023-05-15T02:53:31;4.43;;;4.00;;
17199;SDS011;8716;52.268;20.968;2023-05-15T02:56:00;3.20;;;3.00;;
17199;SDS011;8716;52.268;20.968;2023-05-15T02:58:28;11.63;;;3.90;;
17199;SDS011;8716;52.268;20.968;2023-05-15T03:00:56;4.47;;;4.17;;
17199;SDS011;8716;52.268;20.968;2023-05-15T03:03:28;3.30;;;3.10;;
17199;SDS011;8716;52.268;20.968;2023-05-15T03:05:57;4.77;;;4.47;;
17199;SDS011;8716;52.268;20.968;2023-05-15T03:08:27;3.40;;;3.20;;
17199;SDS011;8716;52.268;20.968;2023-05-15T03:10:55;3.60;;;3.40;;
17199;SDS011;8716;52.268;20.968;2023-05-15T03:13:23;4.77;;;4.47;;
17199;SDS011;8716;52.268;20.968;2023-05-15T03:15:52;3.97;;;3.77;;
17199;SDS011;8716;52.268;20.968;2023-05-15T03:18:22;4.50;;;4.20;;
17199;SDS011;8716;52.268;20.968;2023-05-15T03:20:52;3.90;;;3.70;;
17199;SDS011;8716;52.268;20.968;2023-05-15T03:23:20;4.17;;;3.93;;
17199;SDS011;8716;52.268;20.968;2023-05-15T03:25:49;4.50;;;4.03;;
17199;SDS011;8716;52.268;20.968;2023-05-15T03:28:19;4.93;;;4.50;;
17199;SDS011;8716;52.268;20.968;2023-05-15T03:30:47;6.33;;;3.87;;
17199;SDS011;8716;52.268;20.968;2023-05-15T03:33:16;5.50;;;5.20;;
17199;SDS011;8716;52.268;20.968;2023-05-15T03:35:44;7.20;;;4.20;;
17199;SDS011;8716;52.268;20.968;2023-05-15T03:38:14;5.20;;;4.90;;
17199;SDS011;8716;52.268;20.968;2023-05-15T03:40:42;3.37;;;3.23;;
17199;SDS011;8716;52.268;20.968;2023-05-15T03:43:11;5.40;;;5.10;;
17199;SDS011;8716;52.268;20.968;2023-05-15T03:45:42;5.70;;;5.40;;
17199;SDS011;8716;52.268;20.968;2023-05-15T03:48:11;4.40;;;4.10;;
17199;SDS011;8716;52.268;20.968;2023-05-15T03:50:39;3.60;;;3.40;;
17199;SDS011;8716;52.268;20.968;2023-05-15T03:53:08;3.73;;;3.53;;
17199;SDS011;8716;52.268;20.968;2023-05-15T03:55:37;5.80;;;5.50;;
17199;SDS011;8716;52.268;20.968;2023-05-15T03:58:08;5.23;;;4.93;;
17199;SDS011;8716;52.268;20.968;2023-05-15T04:00:36;4.80;;;4.50;;
17199;SDS011;8716;52.268;20.968;2023-05-15T04:03:04;5.40;;;5.10;;
17199;SDS011;8716;52.268;20.968;2023-05-15T04:05:33;5.33;;;5.03;;
17199;SDS011;8716;52.268;20.968;2023-05-15T04:08:01;4.00;;;3.80;;
17199;SDS011;8716;52.268;20.968;2023-05-15T04:10:29;5.57;;;5.27;;
17199;SDS011;8716;52.268;20.968;2023-05-15T04:13:00;6.20;;;4.27;;
17199;SDS011;8716;52.268;20.968;2023-05-15T04:15:29;5.60;;;5.30;;
17199;SDS011;8716;52.268;20.968;2023-05-15T04:17:57;3.37;;;3.17;;
17199;SDS011;8716;52.268;20.968;2023-05-15T04:20:25;5.67;;;5.37;;
17199;SDS011;8716;52.268;20.968;2023-05-15T04:22:53;5.53;;;5.23;;
17199;SDS011;8716;52.268;20.968;2023-05-15T04:25:22;6.00;;;5.70;;
17199;SDS011;8716;52.268;20.968;2023-05-15T04:27:51;5.00;;;4.70;;
17199;SDS011;8716;52.268;20.968;2023-05-15T04:30:20;5.50;;;5.20;;
17199;SDS011;8716;52.268;20.968;2023-05-15T04:32:49;7.20;;;6.80;;
17199;SDS011;8716;52.268;20.968;2023-05-15T04:35:18;8.00;;;4.83;;
17199;SDS011;8716;52.268;20.968;2023-05-15T04:37:46;4.50;;;4.20;;
17199;SDS011;8716;52.268;20.968;2023-05-15T04:40:14;5.80;;;5.50;;
17199;SDS011;8716;52.268;20.968;2023-05-15T04:42:43;3.77;;;3.57;;
17199;SDS011;8716;52.268;20.968;2023-05-15T04:45:12;3.10;;;2.90;;
17199;SDS011;8716;52.268;20.968;2023-05-15T04:47:42;5.23;;;4.67;;
17199;SDS011;8716;52.268;20.968;2023-05-15T04:50:10;3.33;;;2.90;;
17199;SDS011;8716;52.268;20.968;2023-05-15T04:52:38;6.17;;;5.87;;
17199;SDS011;8716;52.268;20.968;2023-05-15T04:55:11;4.17;;;3.93;;
17199;SDS011;8716;52.268;20.968;2023-05-15T04:57:39;5.13;;;4.83;;
17199;SDS011;8716;52.268;20.968;2023-05-15T05:00:11;3.90;;;3.70;;
17199;SDS011;8716;52.268;20.968;2023-05-15T05:02:44;4.43;;;4.03;;
17199;SDS011;8716;52.268;20.968;2023-05-15T05:05:13;6.10;;;5.73;;
17199;SDS011;8716;52.268;20.968;2023-05-15T05:07:44;5.20;;;4.90;;
17199;SDS011;8716;52.268;20.968;2023-05-15T05:10:15;4.80;;;4.50;;
17199;SDS011;8716;52.268;20.968;2023-05-15T05:12:44;5.60;;;5.30;;
17199;SDS011;8716;52.268;20.968;2023-05-15T05:15:15;5.73;;;5.43;;
17199;SDS011;8716;52.268;20.968;2023-05-15T05:17:45;4.57;;;4.27;;
17199;SDS011;8716;52.268;20.968;2023-05-15T05:20:13;7.17;;;6.77;;
17199;SDS011;8716;52.268;20.968;2023-05-15T05:22:41;4.17;;;3.93;;
17199;SDS011;8716;52.268;20.968;2023-05-15T05:25:09;4.93;;;4.63;;
17199;SDS011;8716;52.268;20.968;2023-05-15T05:27:40;4.27;;;4.00;;
17199;SDS011;8716;52.268;20.968;2023-05-15T05:30:08;9.87;;;6.93;;
17199;SDS011;8716;52.268;20.968;2023-05-15T05:32:37;5.33;;;5.03;;
17199;SDS011;8716;52.268;20.968;2023-05-15T05:35:09;5.47;;;5.17;;
17199;SDS011;8716;52.268;20.968;2023-05-15T05:37:40;5.10;;;4.80;;
17199;SDS011;8716;52.268;20.968;2023-05-15T05:40:08;4.93;;;4.63;;
17199;SDS011;8716;52.268;20.968;2023-05-15T05:42:37;4.93;;;4.63;;
17199;SDS011;8716;52.268;20.968;2023-05-15T05:45:06;5.73;;;5.43;;
17199;SDS011;8716;52.268;20.968;2023-05-15T05:47:35;5.47;;;5.17;;
17199;SDS011;8716;52.268;20.968;2023-05-15T05:50:03;5.57;;;5.30;;
17199;SDS011;8716;52.268;20.968;2023-05-15T05:52:34;4.83;;;4.47;;
17199;SDS011;8716;52.268;20.968;2023-05-15T05:55:03;5.90;;;5.60;;
17199;SDS011;8716;52.268;20.968;2023-05-15T05:57:31;5.30;;;5.00;;
17199;SDS011;8716;52.268;20.968;2023-05-15T06:00:00;5.87;;;5.57;;
17199;SDS011;8716;52.268;20.968;2023-05-15T06:02:34;4.27;;;4.00;;
17199;SDS011;8716;52.268;20.968;2023-05-15T06:05:03;5.87;;;5.57;;
17199;SDS011;8716;52.268;20.968;2023-05-15T06:07:32;4.97;;;4.67;;
17199;SDS011;8716;52.268;20.968;2023-05-15T06:10:02;4.90;;;4.60;;
17199;SDS011;8716;52.268;20.968;2023-05-15T06:12:32;9.37;;;5.40;;
17199;SDS011;8716;52.268;20.968;2023-05-15T06:15:01;5.70;;;4.47;;
17199;SDS011;8716;52.268;20.968;2023-05-15T06:17:29;5.80;;;5.50;;
17199;SDS011;8716;52.268;20.968;2023-05-15T06:19:57;8.30;;;6.97;;
17199;SDS011;8716;52.268;20.968;2023-05-15T06:22:26;5.83;;;5.53;;
17199;SDS011;8716;52.268;20.968;2023-05-15T06:24:55;8.20;;;6.97;;
17199;SDS011;8716;52.268;20.968;2023-05-15T06:27:24;6.27;;;5.60;;
17199;SDS011;8716;52.268;20.968;2023-05-15T06:29:52;5.30;;;5.00;;
17199;SDS011;8716;52.268;20.968;2023-05-15T06:32:21;7.53;;;4.97;;
17199;SDS011;8716;52.268;20.968;2023-05-15T06:34:49;7.40;;;7.00;;
17199;SDS011;8716;52.268;20.968;2023-05-15T06:37:17;5.70;;;5.40;;
17199;SDS011;8716;52.268;20.968;2023-05-15T06:39:45;5.67;;;5.37;;
17199;SDS011;8716;52.268;20.968;2023-05-15T06:42:15;4.80;;;4.50;;
17199;SDS011;8716;52.268;20.968;2023-05-15T06:44:44;5.93;;;5.63;;
17199;SDS011;8716;52.268;20.968;2023-05-15T06:47:15;4.47;;;4.20;;
17199;SDS011;8716;52.268;20.968;2023-05-15T06:49:43;4.77;;;4.47;;
17199;SDS011;8716;52.268;20.968;2023-05-15T06:52:11;9.93;;;4.43;;
17199;SDS011;8716;52.268;20.968;2023-05-15T06:54:39;6.23;;;5.90;;
17199;SDS011;8716;52.268;20.968;2023-05-15T06:57:10;7.00;;;6.60;;
17199;SDS011;8716;52.268;20.968;2023-05-15T06:59:40;5.57;;;5.27;;
17199;SDS011;8716;52.268;20.968;2023-05-15T07:02:08;5.20;;;4.90;;
17199;SDS011;8716;52.268;20.968;2023-05-15T07:04:37;6.07;;;5.77;;
17199;SDS011;8716;52.268;20.968;2023-05-15T07:07:05;4.83;;;4.53;;
17199;SDS011;8716;52.268;20.968;2023-05-15T07:09:36;5.10;;;4.80;;
17199;SDS011;8716;52.268;20.968;2023-05-15T07:12:04;6.90;;;4.73;;
17199;SDS011;8716;52.268;20.968;2023-05-15T07:14:33;5.53;;;5.23;;
17199;SDS011;8716;52.268;20.968;2023-05-15T07:17:03;6.57;;;6.20;;
17199;SDS011;8716;52.268;20.968;2023-05-15T07:19:31;4.50;;;4.23;;
17199;SDS011;8716;52.268;20.968;2023-05-15T07:22:00;7.43;;;7.03;;
17199;SDS011;8716;52.268;20.968;2023-05-15T07:24:29;5.43;;;5.13;;
17199;SDS011;8716;52.268;20.968;2023-05-15T07:26:57;5.50;;;5.20;;
17199;SDS011;8716;52.268;20.968;2023-05-15T07:29:25;7.17;;;6.77;;
17199;SDS011;8716;52.268;20.968;2023-05-15T07:31:54;6.30;;;5.97;;
17199;SDS011;8716;52.268;20.968;2023-05-15T07:34:23;7.37;;;6.97;;
17199;SDS011;8716;52.268;20.968;2023-05-15T07:36:54;6.70;;;6.30;;
17199;SDS011;8716;52.268;20.968;2023-05-15T07:39:22;5.77;;;5.47;;
17199;SDS011;8716;52.268;20.968;2023-05-15T07:41:50;4.90;;;4.60;;
17199;SDS011;8716;52.268;20.968;2023-05-15T07:44:21;4.80;;;4.50;;
17199;SDS011;8716;52.268;20.968;2023-05-15T07:46:49;7.53;;;6.60;;
17199;SDS011;8716;52.268;20.968;2023-05-15T07:49:18;6.33;;;5.97;;
17199;SDS011;8716;52.268;20.968;2023-05-15T07:51:47;8.03;;;7.63;;
17199;SDS011;8716;52.268;20.968;2023-05-15T07:54:16;5.43;;;5.13;;
17199;SDS011;8716;52.268;20.968;2023-05-15T07:56:44;5.90;;;5.60;;
17199;SDS011;8716;52.268;20.968;2023-05-15T07:59:14;10.50;;;7.80;;
17199;SDS011;8716;52.268;20.968;2023-05-15T08:01:43;6.73;;;6.33;;
17199;SDS011;8716;52.268;20.968;2023-05-15T08:04:11;8.60;;;7.57;;
17199;SDS011;8716;52.268;20.968;2023-05-15T08:06:39;5.83;;;5.53;;
17199;SDS011;8716;52.268;20.968;2023-05-15T08:09:11;6.77;;;6.37;;
17199;SDS011;8716;52.268;20.968;2023-05-15T08:11:39;7.17;;;6.77;;
17199;SDS011;8716;52.268;20.968;2023-05-15T08:14:07;7.20;;;6.77;;
17199;SDS011;8716;52.268;20.968;2023-05-15T08:16:39;6.73;;;6.33;;
17199;SDS011;8716;52.268;20.968;2023-05-15T08:19:07;5.17;;;4.83;;
17199;SDS011;8716;52.268;20.968;2023-05-15T08:21:36;7.23;;;6.83;;
17199;SDS011;8716;52.268;20.968;2023-05-15T08:24:05;10.87;;;8.50;;
17199;SDS011;8716;52.268;20.968;2023-05-15T08:26:34;6.70;;;6.10;;
17199;SDS011;8716;52.268;20.968;2023-05-15T08:29:06;7.47;;;6.20;;
17199;SDS011;8716;52.268;20.968;2023-05-15T08:31:34;8.83;;;6.77;;
17199;SDS011;8716;52.268;20.968;2023-05-15T08:34:02;6.93;;;6.53;;
17199;SDS011;8716;52.268;20.968;2023-05-15T08:36:30;7.10;;;6.70;;
17199;SDS011;8716;52.268;20.968;2023-05-15T08:38:59;7.53;;;5.73;;
17199;SDS011;8716;52.268;20.968;2023-05-15T08:41:31;7.20;;;6.80;;
17199;SDS011;8716;52.268;20.968;2023-05-15T08:44:08;6.70;;;6.30;;
17199;SDS011;8716;52.268;20.968;2023-05-15T08:46:37;7.80;;;7.33;;
17199;SDS011;8716;52.268;20.968;2023-05-15T08:49:06;5.27;;;4.97;;
17199;SDS011;8716;52.268;20.968;2023-05-15T08:51:38;9.67;;;9.17;;
17199;SDS011;8716;52.268;20.968;2023-05-15T08:54:07;7.37;;;6.97;;
17199;SDS011;8716;52.268;20.968;2023-05-15T08:56:35;6.97;;;6.57;;
17199;SDS011;8716;52.268;20.968;2023-05-15T08:59:04;8.53;;;6.80;;
17199;SDS011;8716;52.268;20.968;2023-05-15T09:01:34;12.33;;;8.50;;
17199;SDS011;8716;52.268;20.968;2023-05-15T09:04:03;13.40;;;10.10;;
17199;SDS011;8716;52.268;20.968;2023-05-15T09:06:31;7.53;;;7.13;;
17199;SDS011;8716;52.268;20.968;2023-05-15T09:09:00;8.70;;;8.20;;
17199;SDS011;8716;52.268;20.968;2023-05-15T09:11:31;9.20;;;8.70;;
17199;SDS011;8716;52.268;20.968;2023-05-15T09:13:59;11.17;;;9.43;;
17199;SDS011;8716;52.268;20.968;2023-05-15T09:16:28;13.90;;;7.13;;
17199;SDS011;8716;52.268;20.968;2023-05-15T09:18:57;9.47;;;8.97;;
17199;SDS011;8716;52.268;20.968;2023-05-15T09:21:27;10.20;;;9.67;;
17199;SDS011;8716;52.268;20.968;2023-05-15T09:26:42;11.50;;;8.57;;
17199;SDS011;8716;52.268;20.968;2023-05-15T09:29:14;8.87;;;7.10;;
17199;SDS011;8716;52.268;20.968;2023-05-15T09:31:45;9.33;;;8.87;;
17199;SDS011;8716;52.268;20.968;2023-05-15T09:34:15;9.47;;;8.97;;
17199;SDS011;8716;52.268;20.968;2023-05-15T09:36:43;8.33;;;7.90;;
17199;SDS011;8716;52.268;20.968;2023-05-15T09:39:11;7.87;;;7.47;;
17199;SDS011;8716;52.268;20.968;2023-05-15T09:41:40;8.93;;;8.43;;
17199;SDS011;8716;52.268;20.968;2023-05-15T09:44:17;10.07;;;9.00;;
17199;SDS011;8716;52.268;20.968;2023-05-15T09:46:47;8.57;;;8.10;;
17199;SDS011;8716;52.268;20.968;2023-05-15T09:49:18;13.10;;;8.87;;
17199;SDS011;8716;52.268;20.968;2023-05-15T09:51:46;9.10;;;8.60;;
17199;SDS011;8716;52.268;20.968;2023-05-15T09:54:16;11.77;;;11.17;;
17199;SDS011;8716;52.268;20.968;2023-05-15T09:56:45;9.67;;;9.17;;
17199;SDS011;8716;52.268;20.968;2023-05-15T09:59:14;8.70;;;8.20;;
17199;SDS011;8716;52.268;20.968;2023-05-15T10:01:47;8.20;;;7.80;;
17199;SDS011;8716;52.268;20.968;2023-05-15T10:04:17;7.70;;;7.30;;
17199;SDS011;8716;52.268;20.968;2023-05-15T10:06:46;13.27;;;12.57;;
17199;SDS011;8716;52.268;20.968;2023-05-15T10:09:17;10.20;;;9.70;;
17199;SDS011;8716;52.268;20.968;2023-05-15T10:11:48;9.93;;;9.43;;
17199;SDS011;8716;52.268;20.968;2023-05-15T10:14:20;11.43;;;10.83;;
17199;SDS011;8716;52.268;20.968;2023-05-15T10:16:52;13.87;;;8.47;;
17199;SDS011;8716;52.268;20.968;2023-05-15T10:19:23;6.77;;;6.37;;
17199;SDS011;8716;52.268;20.968;2023-05-15T10:21:56;10.07;;;9.57;;
17199;SDS011;8716;52.268;20.968;2023-05-15T10:24:26;10.30;;;9.77;;
17199;SDS011;8716;52.268;20.968;2023-05-15T10:26:56;9.23;;;8.73;;
17199;SDS011;8716;52.268;20.968;2023-05-15T10:29:27;9.30;;;8.80;;
17199;SDS011;8716;52.268;20.968;2023-05-15T10:31:56;17.37;;;7.90;;
17199;SDS011;8716;52.268;20.968;2023-05-15T10:34:28;8.27;;;7.83;;
17199;SDS011;8716;52.268;20.968;2023-05-15T10:36:57;8.23;;;7.80;;
17199;SDS011;8716;52.268;20.968;2023-05-15T10:39:29;10.60;;;8.23;;
17199;SDS011;8716;52.268;20.968;2023-05-15T10:42:01;9.50;;;9.00;;
17199;SDS011;8716;52.268;20.968;2023-05-15T10:44:30;19.13;;;12.60;;
17199;SDS011;8716;52.268;20.968;2023-05-15T10:46:58;9.67;;;9.17;;
17199;SDS011;8716;52.268;20.968;2023-05-15T10:49:29;8.20;;;5.37;;
17199;SDS011;8716;52.268;20.968;2023-05-15T10:52:01;9.27;;;8.80;;
17199;SDS011;8716;52.268;20.968;2023-05-15T10:54:32;7.27;;;6.87;;
17199;SDS011;8716;52.268;20.968;2023-05-15T10:57:00;6.87;;;5.83;;
17199;SDS011;8716;52.268;20.968;2023-05-15T10:59:29;9.83;;;9.33;;
17199;SDS011;8716;52.268;20.968;2023-05-15T11:04:56;10.53;;;9.90;;
17199;SDS011;8716;52.268;20.968;2023-05-15T11:07:26;10.03;;;9.53;;
17199;SDS011;8716;52.268;20.968;2023-05-15T11:09:55;9.77;;;9.27;;
17199;SDS011;8716;52.268;20.968;2023-05-15T11:12:23;9.10;;;8.60;;
17199;SDS011;8716;52.268;20.968;2023-05-15T11:18:03;7.70;;;7.30;;
17199;SDS011;8716;52.268;20.968;2023-05-15T11:20:36;11.60;;;11.00;;
17199;SDS011;8716;52.268;20.968;2023-05-15T11:23:06;8.40;;;6.97;;
17199;SDS011;8716;52.268;20.968;2023-05-15T11:25:35;8.03;;;7.60;;
17199;SDS011;8716;52.268;20.968;2023-05-15T11:28:03;8.10;;;7.70;;
17199;SDS011;8716;52.268;20.968;2023-05-15T11:30:33;10.97;;;10.37;;
17199;SDS011;8716;52.268;20.968;2023-05-15T11:33:06;15.93;;;9.70;;
17199;SDS011;8716;52.268;20.968;2023-05-15T11:35:38;7.33;;;6.93;;
17199;SDS011;8716;52.268;20.968;2023-05-15T11:38:14;10.70;;;8.77;;
17199;SDS011;8716;52.268;20.968;2023-05-15T11:40:44;9.40;;;8.90;;
17199;SDS011;8716;52.268;20.968;2023-05-15T11:43:16;7.50;;;7.10;;
17199;SDS011;8716;52.268;20.968;2023-05-15T11:45:46;10.20;;;9.60;;
17199;SDS011;8716;52.268;20.968;2023-05-15T11:48:21;6.83;;;6.43;;
17199;SDS011;8716;52.268;20.968;2023-05-15T11:50:52;7.53;;;7.13;;
17199;SDS011;8716;52.268;20.968;2023-05-15T11:53:24;9.33;;;8.83;;
17199;SDS011;8716;52.268;20.968;2023-05-15T11:55:52;5.77;;;5.47;;
17199;SDS011;8716;52.268;20.968;2023-05-15T11:58:21;9.90;;;8.53;;
17199;SDS011;8716;52.268;20.968;2023-05-15T12:00:51;6.90;;;6.50;;
17199;SDS011;8716;52.268;20.968;2023-05-15T12:03:24;6.60;;;6.20;;
17199;SDS011;8716;52.268;20.968;2023-05-15T12:05:55;8.27;;;7.47;;
17199;SDS011;8716;52.268;20.968;2023-05-15T12:08:25;7.63;;;7.20;;
17199;SDS011;8716;52.268;20.968;2023-05-15T12:10:57;8.50;;;7.10;;
17199;SDS011;8716;52.268;20.968;2023-05-15T12:13:26;14.90;;;8.73;;
17199;SDS011;8716;52.268;20.968;2023-05-15T12:15:56;13.53;;;11.10;;
17199;SDS011;8716;52.268;20.968;2023-05-15T12:18:28;9.97;;;9.47;;
17199;SDS011;8716;52.268;20.968;2023-05-15T12:20:58;8.83;;;8.33;;
17199;SDS011;8716;52.268;20.968;2023-05-15T12:23:27;10.77;;;10.17;;
17199;SDS011;8716;52.268;20.968;2023-05-15T12:25:58;8.53;;;8.07;;
17199;SDS011;8716;52.268;20.968;2023-05-15T12:28:27;9.00;;;8.50;;
17199;SDS011;8716;52.268;20.968;2023-05-15T12:30:56;9.13;;;8.63;;
17199;SDS011;8716;52.268;20.968;2023-05-15T12:33:25;8.83;;;8.33;;
17199;SDS011;8716;52.268;20.968;2023-05-15T12:35:54;6.60;;;6.20;;
17199;SDS011;8716;52.268;20.968;2023-05-15T12:38:28;6.67;;;6.27;;
17199;SDS011;8716;52.268;20.968;2023-05-15T12:40:59;6.97;;;6.57;;
17199;SDS011;8716;52.268;20.968;2023-05-15T12:43:27;7.40;;;7.00;;
17199;SDS011;8716;52.268;20.968;2023-05-15T12:45:58;10.07;;;9.57;;
17199;SDS011;8716;52.268;20.968;2023-05-15T12:48:29;9.17;;;8.63;;
17199;SDS011;8716;52.268;20.968;2023-05-15T12:51:03;6.13;;;5.80;;
17199;SDS011;8716;52.268;20.968;2023-05-15T12:53:34;8.70;;;8.20;;
17199;SDS011;8716;52.268;20.968;2023-05-15T12:56:05;8.80;;;8.30;;
17199;SDS011;8716;52.268;20.968;2023-05-15T12:58:35;6.97;;;6.57;;
17199;SDS011;8716;52.268;20.968;2023-05-15T13:01:05;9.10;;;8.60;;
17199;SDS011;8716;52.268;20.968;2023-05-15T13:03:33;7.70;;;7.30;;
17199;SDS011;8716;52.268;20.968;2023-05-15T13:06:02;10.63;;;10.07;;
17199;SDS011;8716;52.268;20.968;2023-05-15T13:08:32;10.23;;;9.70;;
17199;SDS011;8716;52.268;20.968;2023-05-15T13:11:09;7.90;;;7.50;;
17199;SDS011;8716;52.268;20.968;2023-05-15T13:13:43;10.90;;;10.30;;
17199;SDS011;8716;52.268;20.968;2023-05-15T13:16:18;10.00;;;9.50;;
17199;SDS011;8716;52.268;20.968;2023-05-15T13:18:47;8.27;;;7.87;;
17199;SDS011;8716;52.268;20.968;2023-05-15T13:21:16;10.90;;;8.87;;
17199;SDS011;8716;52.268;20.968;2023-05-15T13:23:46;8.80;;;8.10;;
17199;SDS011;8716;52.268;20.968;2023-05-15T13:26:14;10.50;;;9.93;;
17199;SDS011;8716;52.268;20.968;2023-05-15T13:28:42;7.70;;;7.30;;
17199;SDS011;8716;52.268;20.968;2023-05-15T13:31:11;8.53;;;8.07;;
17199;SDS011;8716;52.268;20.968;2023-05-15T13:33:39;8.93;;;8.43;;
17199;SDS011;8716;52.268;20.968;2023-05-15T13:36:07;9.17;;;7.60;;
17199;SDS011;8716;52.268;20.968;2023-05-15T13:38:36;9.40;;;8.90;;
17199;SDS011;8716;52.268;20.968;2023-05-15T13:41:06;12.97;;;9.20;;
17199;SDS011;8716;52.268;20.968;2023-05-15T13:43:34;8.63;;;8.17;;
17199;SDS011;8716;52.268;20.968;2023-05-15T13:46:02;7.00;;;6.60;;
17199;SDS011;8716;52.268;20.968;2023-05-15T13:48:33;7.20;;;6.80;;
17199;SDS011;8716;52.268;20.968;2023-05-15T13:51:01;9.17;;;8.67;;
17199;SDS011;8716;52.268;20.968;2023-05-15T13:53:29;13.00;;;12.30;;
17199;SDS011;8716;52.268;20.968;2023-05-15T13:56:00;12.07;;;8.23;;
17199;SDS011;8716;52.268;20.968;2023-05-15T13:58:30;8.77;;;8.27;;
17199;SDS011;8716;52.268;20.968;2023-05-15T14:00:58;7.33;;;6.93;;
17199;SDS011;8716;52.268;20.968;2023-05-15T14:03:29;10.13;;;6.57;;
17199;SDS011;8716;52.268;20.968;2023-05-15T14:05:57;10.93;;;10.33;;
17199;SDS011;8716;52.268;20.968;2023-05-15T14:08:26;8.80;;;8.30;;
17199;SDS011;8716;52.268;20.968;2023-05-15T14:10:56;7.80;;;7.40;;
17199;SDS011;8716;52.268;20.968;2023-05-15T14:13:25;12.47;;;11.83;;
17199;SDS011;8716;52.268;20.968;2023-05-15T14:15:58;12.43;;;9.80;;
17199;SDS011;8716;52.268;20.968;2023-05-15T14:18:26;12.20;;;11.60;;
17199;SDS011;8716;52.268;20.968;2023-05-15T14:20:57;21.40;;;14.00;;
17199;SDS011;8716;52.268;20.968;2023-05-15T14:23:26;19.43;;;12.00;;
17199;SDS011;8716;52.268;20.968;2023-05-15T14:25:56;17.63;;;9.90;;
17199;SDS011;8716;52.268;20.968;2023-05-15T14:28:24;13.70;;;10.57;;
17199;SDS011;8716;52.268;20.968;2023-05-15T14:30:53;10.60;;;10.00;;
17199;SDS011;8716;52.268;20.968;2023-05-15T14:33:22;8.67;;;8.20;;
17199;SDS011;8716;52.268;20.968;2023-05-15T14:35:52;8.67;;;8.17;;
17199;SDS011;8716;52.268;20.968;2023-05-15T14:38:20;10.03;;;9.53;;
17199;SDS011;8716;52.268;20.968;2023-05-15T14:40:48;12.23;;;11.63;;
17199;SDS011;8716;52.268;20.968;2023-05-15T14:43:16;9.00;;;8.50;;
17199;SDS011;8716;52.268;20.968;2023-05-15T14:45:47;16.30;;;14.60;;
17199;SDS011;8716;52.268;20.968;2023-05-15T14:48:15;9.03;;;8.53;;
17199;SDS011;8716;52.268;20.968;2023-05-15T14:50:49;8.87;;;8.37;;
17199;SDS011;8716;52.268;20.968;2023-05-15T14:53:17;7.70;;;7.30;;
17199;SDS011;8716;52.268;20.968;2023-05-15T14:55:46;10.87;;;10.27;;
17199;SDS011;8716;52.268;20.968;2023-05-15T14:58:14;11.10;;;10.47;;
17199;SDS011;8716;52.268;20.968;2023-05-15T15:00:42;14.80;;;14.03;;
17199;SDS011;8716;52.268;20.968;2023-05-15T15:03:10;7.93;;;7.53;;
17199;SDS011;8716;52.268;20.968;2023-05-15T15:05:39;9.30;;;8.80;;
17199;SDS011;8716;52.268;20.968;2023-05-15T15:08:08;10.83;;;10.27;;
17199;SDS011;8716;52.268;20.968;2023-05-15T15:10:38;8.57;;;7.83;;
17199;SDS011;8716;52.268;20.968;2023-05-15T15:13:09;11.97;;;11.37;;